Swift Arrow — WAFK — position and weather

sailwx.info

Track history (hours):
 
Tides and Currents Weather Stations Pressure Air Temp Water Temp Dewpoint Dewpoint Depression Visibility Wind Speed Wind Dir Waves Ship Positions

Swift Arrow

Owner: ARROW LAUNCH SERVICE INC, Port Angeles, WA. More information available from US FCC via Universal Licensing System and Coast Guard Vessel Documentation Center.

Last reported at 2016-Dec-09 02:11 UTC. Time now 2016-Dec-09 03:58 UTC.
Position N 47°34' W 122°21'.

Type: Port tender. MMSI: 369021000.

Date/timePositionNaut miles runAvg speedWind from/ knotsBaromVisibWave heightAir tempDewpointWater temp
2016-Dec-09 02:11N 47°34' W 122°21'3 5.5
2016-Dec-09 01:34N 47°35' W 122°26'4 3.7
2016-Dec-09 00:33N 47°33' W 122°30'5 5.3
2016-Dec-08 23:34N 47°36' W 122°23'5 5.4
2016-Dec-08 22:33N 47°34' W 122°30'6 6.2
2016-Dec-08 21:33N 47°38' W 122°24'4 4.4
2016-Dec-08 20:33N 47°34' W 122°28'2 2.1
2016-Dec-08 19:33N 47°33' W 122°31'6 6.2
2016-Dec-08 18:33N 47°35' W 122°22'6 6.2
2016-Dec-08 17:33N 47°33' W 122°31'0 0.0
2016-Dec-08 16:33N 47°33' W 122°31'4 4.3
2016-Dec-08 15:34N 47°35' W 122°25'3 0.5
2016-Dec-08 09:33N 47°36' W 122°20'0 0.1
2016-Dec-08 08:33N 47°36' W 122°20'1 1.2
2016-Dec-08 07:33N 47°35' W 122°22'2 0.2
2016-Dec-07 19:33N 47°35' W 122°24'5 4.6
2016-Dec-07 18:33N 47°33' W 122°30'6 5.7
2016-Dec-07 17:33N 47°36' W 122°23'2 2.0
2016-Dec-07 16:33N 47°34' W 122°21'0 0.0
2016-Dec-07 08:33N 47°34' W 122°21'8 7.9
2016-Dec-07 07:33N 47°33' W 122°33'0 0.0
2016-Dec-07 06:33N 47°33' W 122°33'0 0.4
2016-Dec-07 05:33N 47°33' W 122°32'0 0.4
2016-Dec-07 04:33N 47°33' W 122°33'0 0.0
2016-Dec-07 03:33N 47°33' W 122°33'2 1.5
2016-Dec-07 02:33N 47°32' W 122°31'2 1.5
2016-Dec-07 01:34N 47°33' W 122°33'0 0.0
2016-Dec-07 00:33N 47°33' W 122°33'8 2.3
2016-Dec-06 21:07N 47°34' W 122°21'4 6.9
2016-Dec-06 20:33N 47°35' W 122°26'4 1.1
2016-Dec-06 16:32N 47°33' W 122°33'2 2.0
2016-Dec-06 15:33N 47°34' W 122°30'6 0.4
2016-Dec-06 00:34N 47°35' W 122°22'1 1.4
2016-Dec-05 23:33N 47°36' W 122°20'2 1.9
2016-Dec-05 22:33N 47°34' W 122°21'1 1.2
2016-Dec-05 21:33N 47°35' W 122°21'8 7.7
2016-Dec-05 20:33N 47°32' W 122°31'2 1.6
2016-Dec-05 19:33N 47°34' W 122°30'6 6.1
2016-Dec-05 18:34N 47°34' W 122°21'0 0.3
2016-Dec-05 17:33N 47°34' W 122°21'0 0.0
2016-Dec-05 16:34N 47°34' W 122°21'0 0.0
2016-Dec-05 08:07N 47°34' W 122°21'2 3.6
2016-Dec-05 07:33N 47°36' W 122°22'2 2.0
2016-Dec-05 06:33N 47°34' W 122°21'  
2016-Dec-03 02:31N 47°34' W 122°21'6 6.6
2016-Dec-03 01:33N 47°34' W 122°30'6 1.4
2016-Dec-02 21:04N 47°34' W 122°21'4 7.8
2016-Dec-02 20:33N 47°38' W 122°23'1 0.8
2016-Dec-02 19:33N 47°37' W 122°22'3 3.2
2016-Dec-02 18:33N 47°34' W 122°21'0 0.1
2016-Dec-02 16:03N 47°34' W 122°21'5 9.5
2016-Dec-02 15:32N 47°35' W 122°28'5 5.0
2016-Dec-02 14:34N 47°34' W 122°21'4 1.0
2016-Dec-02 10:33N 47°35' W 122°27'3 3.5
2016-Dec-02 09:33N 47°33' W 122°32'0 0.2
2016-Dec-02 08:33N 47°34' W 122°31'7 7.2
2016-Dec-02 07:33N 47°34' W 122°21'0 0.0
2016-Dec-02 00:23N 47°34' W 122°21'7 8.8
2016-Dec-01 23:33N 47°33' W 122°32'7 7.2
2016-Dec-01 22:33N 47°34' W 122°21'0 0.0
2016-Dec-01 20:09N 47°34' W 122°21'4 6.6
2016-Dec-01 19:33N 47°35' W 122°27'3 2.8
2016-Dec-01 18:34N 47°34' W 122°30'5 5.2
2016-Dec-01 17:34N 47°36' W 122°23'3 2.5
2016-Dec-01 16:33N 47°34' W 122°21'3 0.6
2016-Dec-01 10:34N 47°35' W 122°26'3 2.9
2016-Dec-01 09:33N 47°35' W 122°22'2 0.7
2016-Dec-01 06:34N 47°36' W 122°24'4 4.2
2016-Dec-01 05:33N 47°34' W 122°29'6 0.9
2016-Nov-30 23:04N 47°34' W 122°21'510.5
2016-Nov-30 22:33N 47°38' W 122°25'2 0.1
2016-Nov-29 17:22N 47°41' W 122°25'  
Track history (hours):
 
Tides and Currents Weather Stations Pressure Air Temp Water Temp Dewpoint Dewpoint Depression Visibility Wind Speed Wind Dir Waves Ship Positions

Swift Arrow

Owner: ARROW LAUNCH SERVICE INC, Port Angeles, WA. More information available from US FCC via Universal Licensing System and Coast Guard Vessel Documentation Center.

Last reported at 2016-Dec-09 02:11 UTC. Time now 2016-Dec-09 03:58 UTC.
Position N 47°34' W 122°21'.

Type: Port tender. MMSI: 369021000.

Date/timePositionNaut miles runAvg speedWind from/ knotsBaromVisibWave heightAir tempDewpointWater temp
2016-Dec-09 02:11N 47°34' W 122°21'3 5.5
2016-Dec-09 01:34N 47°35' W 122°26'4 3.7
2016-Dec-09 00:33N 47°33' W 122°30'5 5.3
2016-Dec-08 23:34N 47°36' W 122°23'5 5.4
2016-Dec-08 22:33N 47°34' W 122°30'6 6.2
2016-Dec-08 21:33N 47°38' W 122°24'4 4.4
2016-Dec-08 20:33N 47°34' W 122°28'2 2.1
2016-Dec-08 19:33N 47°33' W 122°31'6 6.2
2016-Dec-08 18:33N 47°35' W 122°22'6 6.2
2016-Dec-08 17:33N 47°33' W 122°31'0 0.0
2016-Dec-08 16:33N 47°33' W 122°31'4 4.3
2016-Dec-08 15:34N 47°35' W 122°25'3 0.5
2016-Dec-08 09:33N 47°36' W 122°20'0 0.1
2016-Dec-08 08:33N 47°36' W 122°20'1 1.2
2016-Dec-08 07:33N 47°35' W 122°22'2 0.2
2016-Dec-07 19:33N 47°35' W 122°24'5 4.6
2016-Dec-07 18:33N 47°33' W 122°30'6 5.7
2016-Dec-07 17:33N 47°36' W 122°23'2 2.0
2016-Dec-07 16:33N 47°34' W 122°21'0 0.0
2016-Dec-07 08:33N 47°34' W 122°21'8 7.9
2016-Dec-07 07:33N 47°33' W 122°33'0 0.0
2016-Dec-07 06:33N 47°33' W 122°33'0 0.4
2016-Dec-07 05:33N 47°33' W 122°32'0 0.4
2016-Dec-07 04:33N 47°33' W 122°33'0 0.0
2016-Dec-07 03:33N 47°33' W 122°33'2 1.5
2016-Dec-07 02:33N 47°32' W 122°31'2 1.5
2016-Dec-07 01:34N 47°33' W 122°33'0 0.0
2016-Dec-07 00:33N 47°33' W 122°33'8 2.3
2016-Dec-06 21:07N 47°34' W 122°21'4 6.9
2016-Dec-06 20:33N 47°35' W 122°26'4 1.1
2016-Dec-06 16:32N 47°33' W 122°33'2 2.0
2016-Dec-06 15:33N 47°34' W 122°30'6 0.4
2016-Dec-06 00:34N 47°35' W 122°22'1 1.4
2016-Dec-05 23:33N 47°36' W 122°20'2 1.9
2016-Dec-05 22:33N 47°34' W 122°21'1 1.2
2016-Dec-05 21:33N 47°35' W 122°21'8 7.7
2016-Dec-05 20:33N 47°32' W 122°31'2 1.6
2016-Dec-05 19:33N 47°34' W 122°30'6 6.1
2016-Dec-05 18:34N 47°34' W 122°21'0 0.3
2016-Dec-05 17:33N 47°34' W 122°21'0 0.0
2016-Dec-05 16:34N 47°34' W 122°21'0 0.0
2016-Dec-05 08:07N 47°34' W 122°21'2 3.6
2016-Dec-05 07:33N 47°36' W 122°22'2 2.0
2016-Dec-05 06:33N 47°34' W 122°21'  
2016-Dec-03 02:31N 47°34' W 122°21'6 6.6
2016-Dec-03 01:33N 47°34' W 122°30'6 1.4
2016-Dec-02 21:04N 47°34' W 122°21'4 7.8
2016-Dec-02 20:33N 47°38' W 122°23'1 0.8
2016-Dec-02 19:33N 47°37' W 122°22'3 3.2
2016-Dec-02 18:33N 47°34' W 122°21'0 0.1
2016-Dec-02 16:03N 47°34' W 122°21'5 9.5
2016-Dec-02 15:32N 47°35' W 122°28'5 5.0
2016-Dec-02 14:34N 47°34' W 122°21'4 1.0
2016-Dec-02 10:33N 47°35' W 122°27'3 3.5
2016-Dec-02 09:33N 47°33' W 122°32'0 0.2
2016-Dec-02 08:33N 47°34' W 122°31'7 7.2
2016-Dec-02 07:33N 47°34' W 122°21'0 0.0
2016-Dec-02 00:23N 47°34' W 122°21'7 8.8
2016-Dec-01 23:33N 47°33' W 122°32'7 7.2
2016-Dec-01 22:33N 47°34' W 122°21'0 0.0
2016-Dec-01 20:09N 47°34' W 122°21'4 6.6
2016-Dec-01 19:33N 47°35' W 122°27'3 2.8
2016-Dec-01 18:34N 47°34' W 122°30'5 5.2
2016-Dec-01 17:34N 47°36' W 122°23'3 2.5
2016-Dec-01 16:33N 47°34' W 122°21'3 0.6
2016-Dec-01 10:34N 47°35' W 122°26'3 2.9
2016-Dec-01 09:33N 47°35' W 122°22'2 0.7
2016-Dec-01 06:34N 47°36' W 122°24'4 4.2
2016-Dec-01 05:33N 47°34' W 122°29'6 0.9
2016-Nov-30 23:04N 47°34' W 122°21'510.5
2016-Nov-30 22:33N 47°38' W 122°25'2 0.1
2016-Nov-29 17:22N 47°41' W 122°25'  

Dump ship's entire track history